sensor_id;sensor_type;location;lat;lon;timestamp;P1;durP1;ratioP1;P2;durP2;ratioP2
74799;SDS011;63326;45.088;7.658;2023-09-19T00:00:47;8.55;;;3.90;;
74799;SDS011;63326;45.088;7.658;2023-09-19T00:03:15;8.45;;;4.25;;
74799;SDS011;63326;45.088;7.658;2023-09-19T00:05:42;6.22;;;3.75;;
74799;SDS011;63326;45.088;7.658;2023-09-19T00:08:13;7.55;;;3.63;;
74799;SDS011;63326;45.088;7.658;2023-09-19T00:10:43;23.80;;;4.07;;
74799;SDS011;63326;45.088;7.658;2023-09-19T00:13:10;5.95;;;3.78;;
74799;SDS011;63326;45.088;7.658;2023-09-19T00:15:46;6.22;;;3.45;;
74799;SDS011;63326;45.088;7.658;2023-09-19T00:18:20;9.25;;;3.72;;
74799;SDS011;63326;45.088;7.658;2023-09-19T00:20:49;8.00;;;4.07;;
74799;SDS011;63326;45.088;7.658;2023-09-19T00:23:18;5.78;;;3.13;;
74799;SDS011;63326;45.088;7.658;2023-09-19T00:28:12;7.15;;;4.13;;
74799;SDS011;63326;45.088;7.658;2023-09-19T00:30:42;7.25;;;3.20;;
74799;SDS011;63326;45.088;7.658;2023-09-19T00:33:16;9.07;;;3.78;;
74799;SDS011;63326;45.088;7.658;2023-09-19T00:35:51;8.18;;;4.15;;
74799;SDS011;63326;45.088;7.658;2023-09-19T00:38:20;5.38;;;2.90;;
74799;SDS011;63326;45.088;7.658;2023-09-19T00:40:49;6.68;;;2.78;;
74799;SDS011;63326;45.088;7.658;2023-09-19T00:43:17;6.40;;;3.28;;
74799;SDS011;63326;45.088;7.658;2023-09-19T00:45:45;6.50;;;3.63;;
74799;SDS011;63326;45.088;7.658;2023-09-19T00:48:15;6.03;;;2.92;;
74799;SDS011;63326;45.088;7.658;2023-09-19T00:50:44;7.13;;;3.50;;
74799;SDS011;63326;45.088;7.658;2023-09-19T00:53:15;6.93;;;2.67;;
74799;SDS011;63326;45.088;7.658;2023-09-19T00:55:45;6.75;;;3.22;;
74799;SDS011;63326;45.088;7.658;2023-09-19T00:58:13;5.47;;;3.22;;
74799;SDS011;63326;45.088;7.658;2023-09-19T01:00:40;8.15;;;2.92;;
74799;SDS011;63326;45.088;7.658;2023-09-19T01:03:07;5.40;;;2.88;;
74799;SDS011;63326;45.088;7.658;2023-09-19T01:05:34;4.45;;;2.58;;
74799;SDS011;63326;45.088;7.658;2023-09-19T01:08:02;5.53;;;3.08;;
74799;SDS011;63326;45.088;7.658;2023-09-19T01:10:29;4.78;;;2.60;;
74799;SDS011;63326;45.088;7.658;2023-09-19T01:18:27;4.18;;;2.00;;
74799;SDS011;63326;45.088;7.658;2023-09-19T01:32:01;6.95;;;3.10;;
74799;SDS011;63326;45.088;7.658;2023-09-19T01:37:20;5.03;;;3.00;;
74799;SDS011;63326;45.088;7.658;2023-09-19T01:39:52;5.63;;;2.42;;
74799;SDS011;63326;45.088;7.658;2023-09-19T01:42:28;6.05;;;3.10;;
74799;SDS011;63326;45.088;7.658;2023-09-19T01:45:17;6.35;;;3.00;;
74799;SDS011;63326;45.088;7.658;2023-09-19T01:47:59;9.02;;;2.67;;
74799;SDS011;63326;45.088;7.658;2023-09-19T01:50:44;5.85;;;2.90;;
74799;SDS011;63326;45.088;7.658;2023-09-19T01:53:24;8.73;;;2.88;;
74799;SDS011;63326;45.088;7.658;2023-09-19T01:55:57;5.75;;;2.58;;
74799;SDS011;63326;45.088;7.658;2023-09-19T01:58:34;9.75;;;3.13;;
74799;SDS011;63326;45.088;7.658;2023-09-19T02:01:05;8.05;;;3.70;;
74799;SDS011;63326;45.088;7.658;2023-09-19T02:03:37;5.47;;;2.15;;
74799;SDS011;63326;45.088;7.658;2023-09-19T02:06:06;5.43;;;2.30;;
74799;SDS011;63326;45.088;7.658;2023-09-19T02:08:37;4.60;;;2.15;;
74799;SDS011;63326;45.088;7.658;2023-09-19T02:11:05;5.43;;;2.95;;
74799;SDS011;63326;45.088;7.658;2023-09-19T02:13:32;5.97;;;2.05;;
74799;SDS011;63326;45.088;7.658;2023-09-19T02:15:59;4.38;;;2.20;;
74799;SDS011;63326;45.088;7.658;2023-09-19T02:18:26;4.72;;;2.53;;
74799;SDS011;63326;45.088;7.658;2023-09-19T02:20:54;2.67;;;1.52;;
74799;SDS011;63326;45.088;7.658;2023-09-19T02:23:22;4.30;;;2.22;;
74799;SDS011;63326;45.088;7.658;2023-09-19T02:25:53;3.63;;;2.08;;
74799;SDS011;63326;45.088;7.658;2023-09-19T02:28:20;8.27;;;2.53;;
74799;SDS011;63326;45.088;7.658;2023-09-19T02:30:48;4.00;;;2.30;;
74799;SDS011;63326;45.088;7.658;2023-09-19T02:33:16;5.50;;;2.15;;
74799;SDS011;63326;45.088;7.658;2023-09-19T02:35:46;6.05;;;2.10;;
74799;SDS011;63326;45.088;7.658;2023-09-19T02:38:13;8.68;;;2.85;;
74799;SDS011;63326;45.088;7.658;2023-09-19T02:40:41;4.75;;;1.55;;
74799;SDS011;63326;45.088;7.658;2023-09-19T02:43:09;3.53;;;1.95;;
74799;SDS011;63326;45.088;7.658;2023-09-19T02:45:36;3.92;;;1.80;;
74799;SDS011;63326;45.088;7.658;2023-09-19T02:48:03;4.20;;;1.55;;
74799;SDS011;63326;45.088;7.658;2023-09-19T02:50:30;5.57;;;2.38;;
74799;SDS011;63326;45.088;7.658;2023-09-19T02:52:57;4.30;;;1.98;;
74799;SDS011;63326;45.088;7.658;2023-09-19T02:55:24;3.40;;;2.10;;
74799;SDS011;63326;45.088;7.658;2023-09-19T02:57:51;3.72;;;1.67;;
74799;SDS011;63326;45.088;7.658;2023-09-19T03:00:21;6.18;;;2.05;;
74799;SDS011;63326;45.088;7.658;2023-09-19T03:05:16;3.22;;;1.75;;
74799;SDS011;63326;45.088;7.658;2023-09-19T03:07:43;6.47;;;2.22;;
74799;SDS011;63326;45.088;7.658;2023-09-19T03:10:12;5.82;;;1.58;;
74799;SDS011;63326;45.088;7.658;2023-09-19T03:12:41;6.78;;;1.70;;
74799;SDS011;63326;45.088;7.658;2023-09-19T03:15:09;4.10;;;1.70;;
74799;SDS011;63326;45.088;7.658;2023-09-19T03:17:36;4.70;;;1.60;;
74799;SDS011;63326;45.088;7.658;2023-09-19T03:20:03;5.38;;;1.45;;
74799;SDS011;63326;45.088;7.658;2023-09-19T03:22:30;3.03;;;1.50;;
74799;SDS011;63326;45.088;7.658;2023-09-19T03:24:57;2.67;;;1.45;;
74799;SDS011;63326;45.088;7.658;2023-09-19T03:27:25;4.07;;;1.95;;
74799;SDS011;63326;45.088;7.658;2023-09-19T03:29:52;3.53;;;1.55;;
74799;SDS011;63326;45.088;7.658;2023-09-19T03:34:47;4.38;;;1.30;;
74799;SDS011;63326;45.088;7.658;2023-09-19T03:37:15;2.58;;;1.13;;
74799;SDS011;63326;45.088;7.658;2023-09-19T03:39:42;4.70;;;1.42;;
74799;SDS011;63326;45.088;7.658;2023-09-19T03:42:09;2.90;;;1.27;;
74799;SDS011;63326;45.088;7.658;2023-09-19T03:44:36;1.73;;;0.88;;
74799;SDS011;63326;45.088;7.658;2023-09-19T03:47:02;2.92;;;1.20;;
74799;SDS011;63326;45.088;7.658;2023-09-19T03:49:31;3.65;;;1.08;;
74799;SDS011;63326;45.088;7.658;2023-09-19T03:51:58;2.05;;;0.82;;
74799;SDS011;63326;45.088;7.658;2023-09-19T03:54:25;1.90;;;0.90;;
74799;SDS011;63326;45.088;7.658;2023-09-19T03:56:52;2.83;;;1.45;;
74799;SDS011;63326;45.088;7.658;2023-09-19T03:59:19;2.47;;;1.00;;
74799;SDS011;63326;45.088;7.658;2023-09-19T04:04:14;2.13;;;1.30;;
74799;SDS011;63326;45.088;7.658;2023-09-19T04:06:41;3.53;;;0.85;;
74799;SDS011;63326;45.088;7.658;2023-09-19T04:09:07;2.30;;;1.17;;
74799;SDS011;63326;45.088;7.658;2023-09-19T04:11:37;4.97;;;1.67;;
74799;SDS011;63326;45.088;7.658;2023-09-19T04:14:04;2.90;;;1.02;;
74799;SDS011;63326;45.088;7.658;2023-09-19T04:16:31;3.17;;;1.40;;
74799;SDS011;63326;45.088;7.658;2023-09-19T04:18:58;5.95;;;1.30;;
74799;SDS011;63326;45.088;7.658;2023-09-19T04:21:25;4.35;;;1.80;;
74799;SDS011;63326;45.088;7.658;2023-09-19T04:23:53;4.20;;;1.65;;
74799;SDS011;63326;45.088;7.658;2023-09-19T04:26:19;4.22;;;1.38;;
74799;SDS011;63326;45.088;7.658;2023-09-19T04:28:47;2.33;;;1.50;;
74799;SDS011;63326;45.088;7.658;2023-09-19T04:31:14;3.67;;;1.83;;
74799;SDS011;63326;45.088;7.658;2023-09-19T04:33:41;5.15;;;1.25;;
74799;SDS011;63326;45.088;7.658;2023-09-19T04:36:10;2.63;;;1.67;;
74799;SDS011;63326;45.088;7.658;2023-09-19T04:38:56;4.45;;;1.25;;
74799;SDS011;63326;45.088;7.658;2023-09-19T04:41:24;2.22;;;1.35;;
74799;SDS011;63326;45.088;7.658;2023-09-19T04:43:51;4.15;;;1.75;;
74799;SDS011;63326;45.088;7.658;2023-09-19T04:46:18;3.40;;;1.77;;
74799;SDS011;63326;45.088;7.658;2023-09-19T04:48:45;2.30;;;1.02;;
74799;SDS011;63326;45.088;7.658;2023-09-19T04:51:11;3.28;;;1.42;;
74799;SDS011;63326;45.088;7.658;2023-09-19T04:53:38;3.50;;;1.75;;
74799;SDS011;63326;45.088;7.658;2023-09-19T04:56:05;2.78;;;1.20;;
74799;SDS011;63326;45.088;7.658;2023-09-19T04:58:34;4.28;;;1.50;;
74799;SDS011;63326;45.088;7.658;2023-09-19T05:01:00;3.78;;;1.60;;
74799;SDS011;63326;45.088;7.658;2023-09-19T05:05:55;3.13;;;1.25;;
74799;SDS011;63326;45.088;7.658;2023-09-19T05:08:22;2.33;;;1.30;;
74799;SDS011;63326;45.088;7.658;2023-09-19T05:10:48;2.72;;;1.27;;
74799;SDS011;63326;45.088;7.658;2023-09-19T05:13:15;3.35;;;1.40;;
74799;SDS011;63326;45.088;7.658;2023-09-19T05:15:42;3.28;;;1.42;;
74799;SDS011;63326;45.088;7.658;2023-09-19T05:18:14;3.65;;;1.38;;
74799;SDS011;63326;45.088;7.658;2023-09-19T05:20:40;2.80;;;1.35;;
74799;SDS011;63326;45.088;7.658;2023-09-19T05:23:08;2.30;;;1.30;;
74799;SDS011;63326;45.088;7.658;2023-09-19T05:25:39;4.32;;;1.50;;
74799;SDS011;63326;45.088;7.658;2023-09-19T05:28:06;3.28;;;1.45;;
74799;SDS011;63326;45.088;7.658;2023-09-19T05:30:34;5.43;;;1.55;;
74799;SDS011;63326;45.088;7.658;2023-09-19T05:33:02;2.58;;;1.30;;
74799;SDS011;63326;45.088;7.658;2023-09-19T05:35:31;4.28;;;1.65;;
74799;SDS011;63326;45.088;7.658;2023-09-19T05:37:58;4.28;;;1.75;;
74799;SDS011;63326;45.088;7.658;2023-09-19T05:40:25;3.72;;;2.13;;
74799;SDS011;63326;45.088;7.658;2023-09-19T05:42:53;3.83;;;1.23;;
74799;SDS011;63326;45.088;7.658;2023-09-19T05:45:20;3.92;;;1.67;;
74799;SDS011;63326;45.088;7.658;2023-09-19T05:47:50;6.30;;;1.67;;
74799;SDS011;63326;45.088;7.658;2023-09-19T05:50:22;3.15;;;1.42;;
74799;SDS011;63326;45.088;7.658;2023-09-19T05:52:54;3.50;;;1.92;;
74799;SDS011;63326;45.088;7.658;2023-09-19T05:55:22;3.42;;;1.35;;
74799;SDS011;63326;45.088;7.658;2023-09-19T05:57:52;8.27;;;1.65;;
74799;SDS011;63326;45.088;7.658;2023-09-19T06:00:20;3.17;;;1.75;;
74799;SDS011;63326;45.088;7.658;2023-09-19T06:02:55;3.58;;;1.70;;
74799;SDS011;63326;45.088;7.658;2023-09-19T06:05:24;6.28;;;1.80;;
74799;SDS011;63326;45.088;7.658;2023-09-19T06:07:53;6.07;;;1.50;;
74799;SDS011;63326;45.088;7.658;2023-09-19T06:10:20;3.13;;;1.65;;
74799;SDS011;63326;45.088;7.658;2023-09-19T06:12:49;2.72;;;1.17;;
74799;SDS011;63326;45.088;7.658;2023-09-19T06:15:16;4.15;;;1.38;;
74799;SDS011;63326;45.088;7.658;2023-09-19T06:17:54;3.63;;;1.70;;
74799;SDS011;63326;45.088;7.658;2023-09-19T06:20:23;2.35;;;1.10;;
74799;SDS011;63326;45.088;7.658;2023-09-19T06:22:51;4.18;;;2.05;;
74799;SDS011;63326;45.088;7.658;2023-09-19T06:25:19;6.38;;;2.05;;
74799;SDS011;63326;45.088;7.658;2023-09-19T06:27:47;5.32;;;2.15;;
74799;SDS011;63326;45.088;7.658;2023-09-19T06:30:15;5.15;;;2.10;;
74799;SDS011;63326;45.088;7.658;2023-09-19T06:32:43;4.90;;;2.03;;
74799;SDS011;63326;45.088;7.658;2023-09-19T06:35:14;3.42;;;1.50;;
74799;SDS011;63326;45.088;7.658;2023-09-19T06:37:43;6.03;;;1.90;;
74799;SDS011;63326;45.088;7.658;2023-09-19T06:42:41;3.70;;;2.13;;
74799;SDS011;63326;45.088;7.658;2023-09-19T06:45:09;4.72;;;2.50;;
74799;SDS011;63326;45.088;7.658;2023-09-19T06:47:47;7.30;;;2.53;;
74799;SDS011;63326;45.088;7.658;2023-09-19T06:50:19;5.95;;;3.30;;
74799;SDS011;63326;45.088;7.658;2023-09-19T06:52:50;7.65;;;3.33;;
74799;SDS011;63326;45.088;7.658;2023-09-19T06:55:22;5.18;;;3.10;;
74799;SDS011;63326;45.088;7.658;2023-09-19T06:57:55;6.03;;;2.97;;
74799;SDS011;63326;45.088;7.658;2023-09-19T07:00:22;8.20;;;2.97;;
74799;SDS011;63326;45.088;7.658;2023-09-19T07:07:50;8.75;;;4.18;;
74799;SDS011;63326;45.088;7.658;2023-09-19T07:10:17;7.85;;;4.00;;
74799;SDS011;63326;45.088;7.658;2023-09-19T07:12:44;7.90;;;4.35;;
74799;SDS011;63326;45.088;7.658;2023-09-19T07:15:11;9.50;;;4.03;;
74799;SDS011;63326;45.088;7.658;2023-09-19T07:17:38;7.85;;;4.13;;
74799;SDS011;63326;45.088;7.658;2023-09-19T07:20:05;10.07;;;5.80;;
74799;SDS011;63326;45.088;7.658;2023-09-19T07:22:34;11.77;;;5.55;;
74799;SDS011;63326;45.088;7.658;2023-09-19T07:25:01;9.27;;;4.43;;
74799;SDS011;63326;45.088;7.658;2023-09-19T07:27:28;11.45;;;5.55;;
74799;SDS011;63326;45.088;7.658;2023-09-19T07:29:55;11.98;;;5.25;;
74799;SDS011;63326;45.088;7.658;2023-09-19T07:32:22;8.85;;;5.20;;
74799;SDS011;63326;45.088;7.658;2023-09-19T07:34:50;11.57;;;6.40;;
74799;SDS011;63326;45.088;7.658;2023-09-19T07:37:17;8.23;;;4.80;;
74799;SDS011;63326;45.088;7.658;2023-09-19T07:39:43;9.27;;;4.60;;
74799;SDS011;63326;45.088;7.658;2023-09-19T07:42:11;9.27;;;4.63;;
74799;SDS011;63326;45.088;7.658;2023-09-19T07:44:44;9.20;;;5.20;;
74799;SDS011;63326;45.088;7.658;2023-09-19T07:47:16;13.68;;;6.22;;
74799;SDS011;63326;45.088;7.658;2023-09-19T07:49:46;8.18;;;5.30;;
74799;SDS011;63326;45.088;7.658;2023-09-19T07:52:16;12.15;;;6.38;;
74799;SDS011;63326;45.088;7.658;2023-09-19T07:54:42;14.05;;;5.78;;
74799;SDS011;63326;45.088;7.658;2023-09-19T07:57:10;10.57;;;5.82;;
74799;SDS011;63326;45.088;7.658;2023-09-19T07:59:38;13.85;;;7.68;;
74799;SDS011;63326;45.088;7.658;2023-09-19T08:02:05;9.65;;;6.38;;
74799;SDS011;63326;45.088;7.658;2023-09-19T08:04:32;9.65;;;6.03;;
74799;SDS011;63326;45.088;7.658;2023-09-19T08:07:00;13.45;;;7.13;;
74799;SDS011;63326;45.088;7.658;2023-09-19T08:09:30;15.90;;;7.05;;
74799;SDS011;63326;45.088;7.658;2023-09-19T08:12:00;12.38;;;6.82;;
74799;SDS011;63326;45.088;7.658;2023-09-19T08:14:31;11.73;;;6.88;;
74799;SDS011;63326;45.088;7.658;2023-09-19T08:16:59;10.65;;;4.18;;
74799;SDS011;63326;45.088;7.658;2023-09-19T08:19:27;8.68;;;5.95;;
74799;SDS011;63326;45.088;7.658;2023-09-19T08:21:55;11.32;;;6.20;;
74799;SDS011;63326;45.088;7.658;2023-09-19T08:24:28;9.85;;;5.45;;
74799;SDS011;63326;45.088;7.658;2023-09-19T08:26:56;10.80;;;7.03;;
74799;SDS011;63326;45.088;7.658;2023-09-19T08:29:23;11.68;;;6.57;;
74799;SDS011;63326;45.088;7.658;2023-09-19T08:31:54;11.65;;;6.57;;
74799;SDS011;63326;45.088;7.658;2023-09-19T08:34:22;12.32;;;6.30;;
74799;SDS011;63326;45.088;7.658;2023-09-19T08:36:51;11.50;;;7.20;;
74799;SDS011;63326;45.088;7.658;2023-09-19T08:39:25;12.88;;;7.40;;
74799;SDS011;63326;45.088;7.658;2023-09-19T08:42:01;11.20;;;6.93;;
74799;SDS011;63326;45.088;7.658;2023-09-19T08:44:28;10.85;;;6.88;;
74799;SDS011;63326;45.088;7.658;2023-09-19T08:47:06;10.45;;;5.28;;
74799;SDS011;63326;45.088;7.658;2023-09-19T08:49:53;11.93;;;6.70;;
74799;SDS011;63326;45.088;7.658;2023-09-19T08:52:37;10.13;;;6.53;;
74799;SDS011;63326;45.088;7.658;2023-09-19T08:55:13;11.35;;;5.90;;
74799;SDS011;63326;45.088;7.658;2023-09-19T08:57:49;10.90;;;6.80;;
74799;SDS011;63326;45.088;7.658;2023-09-19T09:00:18;9.98;;;5.75;;
74799;SDS011;63326;45.088;7.658;2023-09-19T09:02:47;12.77;;;7.50;;
74799;SDS011;63326;45.088;7.658;2023-09-19T09:05:16;13.73;;;9.10;;
74799;SDS011;63326;45.088;7.658;2023-09-19T09:07:49;13.57;;;7.88;;
74799;SDS011;63326;45.088;7.658;2023-09-19T09:10:18;11.88;;;6.13;;
74799;SDS011;63326;45.088;7.658;2023-09-19T09:12:52;11.90;;;7.00;;
74799;SDS011;63326;45.088;7.658;2023-09-19T09:15:22;10.82;;;6.50;;
74799;SDS011;63326;45.088;7.658;2023-09-19T09:17:50;15.38;;;7.88;;
74799;SDS011;63326;45.088;7.658;2023-09-19T09:20:19;11.27;;;7.15;;
74799;SDS011;63326;45.088;7.658;2023-09-19T09:22:53;9.25;;;6.40;;
74799;SDS011;63326;45.088;7.658;2023-09-19T09:25:22;9.13;;;5.68;;
74799;SDS011;63326;45.088;7.658;2023-09-19T09:28:01;10.32;;;5.88;;
74799;SDS011;63326;45.088;7.658;2023-09-19T09:30:35;11.48;;;6.85;;
74799;SDS011;63326;45.088;7.658;2023-09-19T09:33:10;10.80;;;5.93;;
74799;SDS011;63326;45.088;7.658;2023-09-19T09:35:56;11.73;;;7.40;;
74799;SDS011;63326;45.088;7.658;2023-09-19T09:38:25;11.15;;;6.03;;
74799;SDS011;63326;45.088;7.658;2023-09-19T09:41:10;13.07;;;6.90;;
74799;SDS011;63326;45.088;7.658;2023-09-19T09:43:42;9.00;;;5.47;;
74799;SDS011;63326;45.088;7.658;2023-09-19T09:51:40;7.32;;;5.15;;
74799;SDS011;63326;45.088;7.658;2023-09-19T09:54:13;9.77;;;6.20;;
74799;SDS011;63326;45.088;7.658;2023-09-19T09:56:58;11.00;;;6.65;;
74799;SDS011;63326;45.088;7.658;2023-09-19T09:59:43;12.48;;;7.28;;
74799;SDS011;63326;45.088;7.658;2023-09-19T10:02:14;12.18;;;6.88;;
74799;SDS011;63326;45.088;7.658;2023-09-19T10:04:52;13.32;;;7.10;;
74799;SDS011;63326;45.088;7.658;2023-09-19T10:07:40;12.50;;;6.90;;
74799;SDS011;63326;45.088;7.658;2023-09-19T10:10:10;12.88;;;6.43;;
74799;SDS011;63326;45.088;7.658;2023-09-19T10:12:46;14.48;;;7.35;;
74799;SDS011;63326;45.088;7.658;2023-09-19T10:15:15;14.38;;;7.95;;
74799;SDS011;63326;45.088;7.658;2023-09-19T10:17:47;12.65;;;8.23;;
74799;SDS011;63326;45.088;7.658;2023-09-19T10:20:14;11.93;;;6.50;;
74799;SDS011;63326;45.088;7.658;2023-09-19T10:22:57;12.90;;;7.35;;
74799;SDS011;63326;45.088;7.658;2023-09-19T10:25:28;20.08;;;7.88;;
74799;SDS011;63326;45.088;7.658;2023-09-19T10:28:00;15.00;;;7.78;;
74799;SDS011;63326;45.088;7.658;2023-09-19T10:30:31;14.38;;;8.45;;
74799;SDS011;63326;45.088;7.658;2023-09-19T10:33:01;16.33;;;7.72;;
74799;SDS011;63326;45.088;7.658;2023-09-19T10:35:30;13.63;;;8.55;;
74799;SDS011;63326;45.088;7.658;2023-09-19T10:37:59;15.75;;;8.95;;
74799;SDS011;63326;45.088;7.658;2023-09-19T10:40:27;13.88;;;8.15;;
74799;SDS011;63326;45.088;7.658;2023-09-19T10:43:03;14.43;;;7.95;;
74799;SDS011;63326;45.088;7.658;2023-09-19T10:45:35;12.90;;;7.65;;
74799;SDS011;63326;45.088;7.658;2023-09-19T10:48:05;13.65;;;8.75;;
74799;SDS011;63326;45.088;7.658;2023-09-19T10:50:35;18.92;;;9.25;;
74799;SDS011;63326;45.088;7.658;2023-09-19T10:53:08;17.13;;;9.63;;
74799;SDS011;63326;45.088;7.658;2023-09-19T10:55:37;14.75;;;8.27;;
74799;SDS011;63326;45.088;7.658;2023-09-19T10:58:05;12.80;;;7.50;;
74799;SDS011;63326;45.088;7.658;2023-09-19T11:00:53;15.05;;;8.32;;
74799;SDS011;63326;45.088;7.658;2023-09-19T11:03:22;14.98;;;8.30;;
74799;SDS011;63326;45.088;7.658;2023-09-19T11:06:08;15.27;;;8.55;;
74799;SDS011;63326;45.088;7.658;2023-09-19T11:11:43;13.30;;;7.15;;
74799;SDS011;63326;45.088;7.658;2023-09-19T11:30:49;15.38;;;7.20;;
74799;SDS011;63326;45.088;7.658;2023-09-19T11:36:10;13.98;;;7.88;;
74799;SDS011;63326;45.088;7.658;2023-09-19T11:43:46;13.68;;;7.95;;
74799;SDS011;63326;45.088;7.658;2023-09-19T11:46:53;11.18;;;7.60;;
74799;SDS011;63326;45.088;7.658;2023-09-19T11:49:25;16.48;;;8.23;;
74799;SDS011;63326;45.088;7.658;2023-09-19T11:51:59;16.98;;;7.57;;
74799;SDS011;63326;45.088;7.658;2023-09-19T11:54:35;11.13;;;6.07;;
74799;SDS011;63326;45.088;7.658;2023-09-19T11:57:06;16.98;;;7.07;;
74799;SDS011;63326;45.088;7.658;2023-09-19T11:59:35;15.38;;;7.22;;
74799;SDS011;63326;45.088;7.658;2023-09-19T12:02:06;13.98;;;8.10;;
74799;SDS011;63326;45.088;7.658;2023-09-19T12:07:06;12.60;;;8.00;;
74799;SDS011;63326;45.088;7.658;2023-09-19T12:09:50;13.52;;;7.30;;
74799;SDS011;63326;45.088;7.658;2023-09-19T12:12:29;10.50;;;6.13;;
74799;SDS011;63326;45.088;7.658;2023-09-19T12:14:57;14.20;;;6.43;;
74799;SDS011;63326;45.088;7.658;2023-09-19T12:17:37;15.95;;;8.27;;
74799;SDS011;63326;45.088;7.658;2023-09-19T12:20:09;12.05;;;5.70;;
74799;SDS011;63326;45.088;7.658;2023-09-19T12:22:43;15.55;;;7.65;;
74799;SDS011;63326;45.088;7.658;2023-09-19T12:25:12;14.65;;;7.72;;
74799;SDS011;63326;45.088;7.658;2023-09-19T12:30:10;13.23;;;7.05;;
74799;SDS011;63326;45.088;7.658;2023-09-19T12:32:53;12.93;;;6.32;;
74799;SDS011;63326;45.088;7.658;2023-09-19T12:35:30;13.15;;;7.40;;
74799;SDS011;63326;45.088;7.658;2023-09-19T12:38:02;11.10;;;4.72;;
74799;SDS011;63326;45.088;7.658;2023-09-19T12:40:30;14.40;;;6.70;;
74799;SDS011;63326;45.088;7.658;2023-09-19T12:43:00;10.25;;;6.43;;
74799;SDS011;63326;45.088;7.658;2023-09-19T12:45:32;9.93;;;4.38;;
74799;SDS011;63326;45.088;7.658;2023-09-19T12:50:59;11.80;;;6.45;;
74799;SDS011;63326;45.088;7.658;2023-09-19T12:53:26;13.85;;;6.10;;
74799;SDS011;63326;45.088;7.658;2023-09-19T12:56:00;17.02;;;6.05;;
74799;SDS011;63326;45.088;7.658;2023-09-19T12:58:27;10.63;;;5.68;;
74799;SDS011;63326;45.088;7.658;2023-09-19T13:00:57;10.68;;;5.13;;
74799;SDS011;63326;45.088;7.658;2023-09-19T13:05:56;12.40;;;6.07;;
74799;SDS011;63326;45.088;7.658;2023-09-19T13:08:39;12.82;;;5.75;;
74799;SDS011;63326;45.088;7.658;2023-09-19T13:11:16;10.63;;;4.65;;
74799;SDS011;63326;45.088;7.658;2023-09-19T13:13:49;9.75;;;5.50;;
74799;SDS011;63326;45.088;7.658;2023-09-19T13:16:21;10.27;;;5.18;;
74799;SDS011;63326;45.088;7.658;2023-09-19T13:18:51;12.88;;;5.75;;
74799;SDS011;63326;45.088;7.658;2023-09-19T13:21:30;9.57;;;5.22;;
74799;SDS011;63326;45.088;7.658;2023-09-19T13:24:22;8.52;;;4.93;;
74799;SDS011;63326;45.088;7.658;2023-09-19T13:26:53;10.25;;;4.72;;
74799;SDS011;63326;45.088;7.658;2023-09-19T13:29:20;7.55;;;4.18;;
74799;SDS011;63326;45.088;7.658;2023-09-19T13:31:51;8.93;;;5.13;;
74799;SDS011;63326;45.088;7.658;2023-09-19T13:34:22;8.98;;;4.93;;
74799;SDS011;63326;45.088;7.658;2023-09-19T13:39:16;10.23;;;5.10;;
74799;SDS011;63326;45.088;7.658;2023-09-19T13:41:44;12.57;;;5.45;;
74799;SDS011;63326;45.088;7.658;2023-09-19T13:44:13;10.88;;;4.80;;
74799;SDS011;63326;45.088;7.658;2023-09-19T13:46:40;10.23;;;4.40;;
74799;SDS011;63326;45.088;7.658;2023-09-19T13:49:12;15.90;;;5.22;;
74799;SDS011;63326;45.088;7.658;2023-09-19T13:51:39;8.70;;;4.65;;
74799;SDS011;63326;45.088;7.658;2023-09-19T13:54:28;8.35;;;4.80;;
74799;SDS011;63326;45.088;7.658;2023-09-19T13:56:55;9.52;;;4.28;;
74799;SDS011;63326;45.088;7.658;2023-09-19T13:59:22;10.35;;;5.03;;
74799;SDS011;63326;45.088;7.658;2023-09-19T14:01:50;8.80;;;5.00;;
74799;SDS011;63326;45.088;7.658;2023-09-19T14:04:21;8.38;;;4.18;;
74799;SDS011;63326;45.088;7.658;2023-09-19T14:06:48;8.63;;;5.05;;
74799;SDS011;63326;45.088;7.658;2023-09-19T14:09:15;8.93;;;5.00;;
74799;SDS011;63326;45.088;7.658;2023-09-19T14:11:45;7.55;;;4.32;;
74799;SDS011;63326;45.088;7.658;2023-09-19T14:14:14;8.88;;;4.40;;
74799;SDS011;63326;45.088;7.658;2023-09-19T14:16:41;6.47;;;3.90;;
74799;SDS011;63326;45.088;7.658;2023-09-19T14:19:08;9.35;;;6.30;;
74799;SDS011;63326;45.088;7.658;2023-09-19T14:21:35;7.57;;;4.18;;
74799;SDS011;63326;45.088;7.658;2023-09-19T14:24:02;7.53;;;4.30;;
74799;SDS011;63326;45.088;7.658;2023-09-19T14:28:56;13.23;;;5.45;;
74799;SDS011;63326;45.088;7.658;2023-09-19T14:31:25;7.38;;;4.72;;
74799;SDS011;63326;45.088;7.658;2023-09-19T14:33:54;9.07;;;5.30;;
74799;SDS011;63326;45.088;7.658;2023-09-19T14:36:25;6.03;;;4.30;;
74799;SDS011;63326;45.088;7.658;2023-09-19T14:38:53;5.30;;;3.03;;
74799;SDS011;63326;45.088;7.658;2023-09-19T14:43:52;8.45;;;4.57;;
74799;SDS011;63326;45.088;7.658;2023-09-19T14:46:19;6.88;;;3.50;;
74799;SDS011;63326;45.088;7.658;2023-09-19T14:48:46;7.75;;;3.75;;
74799;SDS011;63326;45.088;7.658;2023-09-19T14:51:15;8.32;;;4.75;;
74799;SDS011;63326;45.088;7.658;2023-09-19T14:53:43;6.45;;;3.35;;
74799;SDS011;63326;45.088;7.658;2023-09-19T14:56:10;7.43;;;3.72;;
74799;SDS011;63326;45.088;7.658;2023-09-19T14:58:37;8.13;;;3.13;;
74799;SDS011;63326;45.088;7.658;2023-09-19T15:01:09;8.10;;;5.00;;
74799;SDS011;63326;45.088;7.658;2023-09-19T15:03:38;6.47;;;4.00;;
74799;SDS011;63326;45.088;7.658;2023-09-19T15:06:10;8.10;;;4.70;;
74799;SDS011;63326;45.088;7.658;2023-09-19T15:08:44;6.93;;;3.83;;
74799;SDS011;63326;45.088;7.658;2023-09-19T15:11:15;6.97;;;3.90;;
74799;SDS011;63326;45.088;7.658;2023-09-19T15:13:44;8.60;;;4.28;;
74799;SDS011;63326;45.088;7.658;2023-09-19T15:16:12;11.38;;;3.78;;
74799;SDS011;63326;45.088;7.658;2023-09-19T15:18:41;5.20;;;3.83;;
74799;SDS011;63326;45.088;7.658;2023-09-19T15:21:09;7.15;;;3.75;;
74799;SDS011;63326;45.088;7.658;2023-09-19T15:23:37;6.45;;;2.90;;
74799;SDS011;63326;45.088;7.658;2023-09-19T15:26:07;7.22;;;3.78;;
74799;SDS011;63326;45.088;7.658;2023-09-19T15:28:35;7.47;;;3.50;;
74799;SDS011;63326;45.088;7.658;2023-09-19T15:31:03;7.80;;;3.95;;
74799;SDS011;63326;45.088;7.658;2023-09-19T15:33:34;5.75;;;3.22;;
74799;SDS011;63326;45.088;7.658;2023-09-19T15:41:24;6.45;;;3.30;;
74799;SDS011;63326;45.088;7.658;2023-09-19T15:43:55;5.40;;;3.63;;
74799;SDS011;63326;45.088;7.658;2023-09-19T15:46:23;5.00;;;2.95;;
74799;SDS011;63326;45.088;7.658;2023-09-19T15:48:51;6.18;;;2.97;;
74799;SDS011;63326;45.088;7.658;2023-09-19T15:51:18;5.47;;;3.28;;
74799;SDS011;63326;45.088;7.658;2023-09-19T15:53:47;6.80;;;3.10;;
74799;SDS011;63326;45.088;7.658;2023-09-19T15:56:16;5.25;;;2.70;;
74799;SDS011;63326;45.088;7.658;2023-09-19T15:58:44;6.20;;;3.00;;
74799;SDS011;63326;45.088;7.658;2023-09-19T16:01:12;5.20;;;2.85;;
74799;SDS011;63326;45.088;7.658;2023-09-19T16:03:47;5.93;;;2.60;;
74799;SDS011;63326;45.088;7.658;2023-09-19T16:06:22;4.90;;;2.83;;
74799;SDS011;63326;45.088;7.658;2023-09-19T16:08:57;4.57;;;2.58;;
74799;SDS011;63326;45.088;7.658;2023-09-19T16:11:25;4.70;;;2.88;;
74799;SDS011;63326;45.088;7.658;2023-09-19T16:13:54;4.25;;;2.50;;
74799;SDS011;63326;45.088;7.658;2023-09-19T16:16:22;4.65;;;2.55;;
74799;SDS011;63326;45.088;7.658;2023-09-19T16:21:18;6.72;;;2.83;;
74799;SDS011;63326;45.088;7.658;2023-09-19T16:23:46;6.07;;;3.70;;
74799;SDS011;63326;45.088;7.658;2023-09-19T16:26:13;6.10;;;3.72;;
74799;SDS011;63326;45.088;7.658;2023-09-19T16:28:41;10.60;;;4.35;;
74799;SDS011;63326;45.088;7.658;2023-09-19T16:31:10;5.97;;;3.45;;
74799;SDS011;63326;45.088;7.658;2023-09-19T16:33:38;8.15;;;3.72;;
74799;SDS011;63326;45.088;7.658;2023-09-19T16:36:13;7.78;;;3.55;;
74799;SDS011;63326;45.088;7.658;2023-09-19T16:38:42;6.53;;;3.92;;